createdAt,value
2023-01-12T00:01:55.452Z,93.44
2023-01-12T00:04:22.265Z,93.63
2023-01-12T00:06:48.957Z,94.12
2023-01-12T00:09:15.544Z,94.79
2023-01-12T00:11:42.313Z,95.14
2023-01-12T00:14:09.591Z,95.44
2023-01-12T00:16:36.784Z,96.16
2023-01-12T00:19:18.559Z,97.44
2023-01-12T00:21:49.400Z,98.84
2023-01-12T00:24:19.029Z,98.41
2023-01-12T00:26:46.852Z,98.43
2023-01-12T00:29:14.037Z,99.09
2023-01-12T00:31:40.762Z,100.00
2023-01-12T00:34:07.549Z,100.00
2023-01-12T00:36:34.104Z,100.00
2023-01-12T00:39:00.705Z,100.00
2023-01-12T00:41:27.461Z,100.00
2023-01-12T00:43:54.031Z,100.00
2023-01-12T00:46:30.099Z,100.00
2023-01-12T00:48:56.745Z,100.00
2023-01-12T00:51:23.549Z,100.00
2023-01-12T00:53:50.102Z,100.00
2023-01-12T00:56:16.649Z,100.00
2023-01-12T00:58:43.216Z,100.00
2023-01-12T01:01:09.816Z,100.00
2023-01-12T01:03:36.579Z,100.00
2023-01-12T01:06:05.057Z,100.00
2023-01-12T01:08:32.035Z,100.00
2023-01-12T01:11:07.233Z,100.00
2023-01-12T01:13:34.605Z,100.00
2023-01-12T01:16:05.037Z,100.00
2023-01-12T01:18:32.855Z,100.00
2023-01-12T01:20:59.501Z,100.00
2023-01-12T01:23:27.505Z,100.00
2023-01-12T01:25:54.350Z,100.00
2023-01-12T01:28:21.723Z,100.00
2023-01-12T01:30:48.781Z,100.00
2023-01-12T01:33:15.372Z,100.00
2023-01-12T01:35:41.857Z,100.00
2023-01-12T01:38:09.556Z,100.00
2023-01-12T01:40:42.329Z,100.00
2023-01-12T01:43:13.427Z,100.00
2023-01-12T01:45:40.679Z,100.00
2023-01-12T01:48:13.840Z,100.00
2023-01-12T01:50:53.593Z,100.00
2023-01-12T01:53:23.881Z,100.00
2023-01-12T01:55:57.283Z,100.00
2023-01-12T01:58:29.251Z,100.00
2023-01-12T02:00:56.609Z,100.00
2023-01-12T02:03:24.491Z,100.00
2023-01-12T02:05:51.508Z,100.00
2023-01-12T02:08:23.953Z,100.00
2023-01-12T02:10:52.359Z,100.00
2023-01-12T02:13:18.848Z,100.00
2023-01-12T02:15:57.072Z,100.00
2023-01-12T02:18:36.929Z,100.00
2023-01-12T02:21:12.666Z,100.00
2023-01-12T02:23:57.543Z,100.00
2023-01-12T02:26:42.419Z,100.00
2023-01-12T02:29:51.912Z,100.00
2023-01-12T02:32:31.767Z,100.00
2023-01-12T02:35:05.920Z,100.00
2023-01-12T02:37:58.368Z,100.00
2023-01-12T02:40:49.042Z,100.00
2023-01-12T02:43:36.338Z,100.00
2023-01-12T02:46:15.300Z,100.00
2023-01-12T02:48:53.042Z,100.00
2023-01-12T02:51:25.329Z,100.00
2023-01-12T02:53:55.784Z,100.00
2023-01-12T02:56:37.722Z,100.00
2023-01-12T02:59:09.904Z,100.00
2023-01-12T03:01:37.395Z,100.00
2023-01-12T03:04:06.077Z,100.00
2023-01-12T03:06:43.971Z,100.00
2023-01-12T03:09:10.528Z,100.00
2023-01-12T03:11:40.502Z,100.00
2023-01-12T03:14:09.786Z,100.00
2023-01-12T03:16:39.752Z,100.00
2023-01-12T03:19:14.572Z,100.00
2023-01-12T03:22:00.475Z,100.00
2023-01-12T03:24:32.898Z,100.00
2023-01-12T03:27:06.019Z,100.00
2023-01-12T03:29:40.313Z,100.00
2023-01-12T03:32:07.318Z,100.00
2023-01-12T03:34:35.673Z,100.00
2023-01-12T03:37:15.756Z,100.00
2023-01-12T03:39:58.117Z,100.00
2023-01-12T03:42:30.090Z,100.00
2023-01-12T03:45:32.992Z,100.00
2023-01-12T03:48:07.513Z,100.00
2023-01-12T03:50:48.377Z,100.00
2023-01-12T03:53:19.002Z,100.00
2023-01-12T03:55:48.431Z,100.00
2023-01-12T03:58:16.681Z,100.00
2023-01-12T04:00:43.893Z,100.00
2023-01-12T04:03:13.364Z,100.00
2023-01-12T04:05:40.985Z,100.00
2023-01-12T04:08:07.870Z,100.00
2023-01-12T04:10:34.577Z,100.00
2023-01-12T04:13:01.215Z,100.00
2023-01-12T04:15:27.816Z,100.00
2023-01-12T04:17:54.591Z,100.00
2023-01-12T04:20:21.441Z,100.00
2023-01-12T04:22:47.943Z,100.00
2023-01-12T04:25:17.261Z,100.00
2023-01-12T04:27:49.278Z,100.00
2023-01-12T04:30:17.916Z,100.00
2023-01-12T04:32:44.727Z,100.00
2023-01-12T04:35:12.238Z,100.00
2023-01-12T04:37:39.633Z,100.00
2023-01-12T04:40:07.834Z,100.00
2023-01-12T04:42:34.429Z,100.00
2023-01-12T04:45:00.923Z,100.00
2023-01-12T04:47:27.468Z,100.00
2023-01-12T04:49:53.950Z,100.00
2023-01-12T04:52:20.560Z,100.00
2023-01-12T04:54:47.241Z,100.00
2023-01-12T04:57:13.931Z,100.00
2023-01-12T04:59:40.693Z,100.00
2023-01-12T05:02:07.575Z,100.00
2023-01-12T05:04:34.202Z,100.00
2023-01-12T05:07:00.738Z,100.00
2023-01-12T05:09:27.408Z,100.00
2023-01-12T05:11:53.911Z,100.00
2023-01-12T05:14:20.361Z,100.00
2023-01-12T05:16:46.954Z,100.00
2023-01-12T05:19:13.721Z,100.00
2023-01-12T05:21:40.435Z,100.00
2023-01-12T05:24:08.269Z,100.00
2023-01-12T05:26:34.876Z,100.00
2023-01-12T05:29:01.334Z,100.00
2023-01-12T05:31:27.849Z,100.00
2023-01-12T05:33:54.387Z,100.00
2023-01-12T05:36:21.064Z,100.00
2023-01-12T05:38:47.828Z,100.00
2023-01-12T05:41:14.417Z,100.00
2023-01-12T05:43:42.019Z,100.00
2023-01-12T05:46:08.736Z,100.00
2023-01-12T05:48:35.275Z,100.00
2023-01-12T05:51:02.495Z,100.00
2023-01-12T05:53:29.433Z,100.00
2023-01-12T05:55:56.831Z,100.00
2023-01-12T05:58:24.253Z,100.00
2023-01-12T06:00:51.290Z,100.00
2023-01-12T06:03:17.862Z,100.00
2023-01-12T06:05:44.351Z,100.00
2023-01-12T06:08:11.226Z,100.00
2023-01-12T06:10:37.739Z,100.00
2023-01-12T06:13:04.198Z,100.00
2023-01-12T06:15:32.758Z,100.00
2023-01-12T06:17:59.329Z,100.00
2023-01-12T06:20:25.937Z,100.00
2023-01-12T06:22:52.436Z,100.00
2023-01-12T06:25:19.081Z,100.00
2023-01-12T06:27:46.704Z,100.00
2023-01-12T06:30:13.619Z,100.00
2023-01-12T06:32:40.186Z,100.00
2023-01-12T06:35:18.293Z,100.00
2023-01-12T06:37:45.848Z,100.00
2023-01-12T06:40:12.827Z,100.00
2023-01-12T06:42:42.651Z,100.00
2023-01-12T06:45:09.934Z,100.00
2023-01-12T06:47:45.030Z,100.00
2023-01-12T06:50:12.063Z,100.00
2023-01-12T06:52:38.710Z,100.00
2023-01-12T06:55:05.525Z,100.00
2023-01-12T06:57:32.031Z,100.00
2023-01-12T06:59:58.706Z,100.00
2023-01-12T07:02:25.213Z,100.00
2023-01-12T07:04:51.765Z,100.00
2023-01-12T07:07:18.280Z,100.00
2023-01-12T07:09:44.960Z,100.00
2023-01-12T07:12:11.477Z,100.00
2023-01-12T07:14:38.060Z,100.00
2023-01-12T07:17:04.577Z,100.00
2023-01-12T07:19:31.123Z,100.00
2023-01-12T07:21:57.596Z,100.00
2023-01-12T07:24:24.071Z,100.00
2023-01-12T07:26:50.676Z,100.00
2023-01-12T07:29:17.213Z,100.00
2023-01-12T07:31:43.716Z,100.00
2023-01-12T07:34:10.448Z,100.00
2023-01-12T07:36:36.954Z,100.00
2023-01-12T07:39:03.565Z,100.00
2023-01-12T07:41:30.031Z,100.00
2023-01-12T07:44:07.274Z,100.00
2023-01-12T07:46:33.808Z,100.00
2023-01-12T07:49:00.334Z,100.00
2023-01-12T07:51:26.866Z,100.00
2023-01-12T07:53:53.309Z,100.00
2023-01-12T07:56:19.817Z,100.00
2023-01-12T07:58:49.894Z,100.00
2023-01-12T08:01:16.753Z,100.00
2023-01-12T08:03:44.090Z,100.00
2023-01-12T08:06:10.625Z,100.00
2023-01-12T08:08:37.119Z,100.00
2023-01-12T08:11:05.888Z,100.00
2023-01-12T08:13:33.014Z,100.00
2023-01-12T08:16:03.320Z,100.00
2023-01-12T08:18:40.140Z,100.00
2023-01-12T08:21:18.544Z,100.00
2023-01-12T08:23:49.746Z,100.00
2023-01-12T08:26:23.628Z,100.00
2023-01-12T08:29:03.264Z,100.00
2023-01-12T08:31:31.922Z,100.00
2023-01-12T08:33:58.511Z,100.00
2023-01-12T08:36:26.737Z,100.00
2023-01-12T08:38:53.409Z,100.00
2023-01-12T08:41:20.101Z,100.00
2023-01-12T08:43:46.516Z,100.00
2023-01-12T08:46:13.497Z,100.00
2023-01-12T08:48:39.951Z,100.00
2023-01-12T08:51:07.954Z,100.00
2023-01-12T08:53:34.932Z,100.00
2023-01-12T08:56:01.441Z,100.00
2023-01-12T08:58:27.883Z,100.00
2023-01-12T09:00:54.520Z,100.00
2023-01-12T09:03:21.019Z,100.00
2023-01-12T09:05:47.560Z,100.00
2023-01-12T09:08:14.533Z,100.00
2023-01-12T09:10:41.020Z,100.00
2023-01-12T09:13:07.471Z,100.00
2023-01-12T09:15:33.967Z,100.00
2023-01-12T09:18:00.446Z,100.00
2023-01-12T09:20:26.953Z,100.00
2023-01-12T09:22:53.400Z,100.00
2023-01-12T09:25:19.933Z,100.00
2023-01-12T09:27:46.367Z,100.00
2023-01-12T09:30:13.041Z,100.00
2023-01-12T09:32:39.536Z,100.00
2023-01-12T09:35:08.157Z,100.00
2023-01-12T09:37:34.626Z,100.00
2023-01-12T09:40:01.117Z,100.00
2023-01-12T09:42:27.656Z,100.00
2023-01-12T09:44:54.123Z,100.00
2023-01-12T09:47:20.572Z,100.00
2023-01-12T09:50:09.966Z,100.00
2023-01-12T09:52:52.985Z,100.00
2023-01-12T09:55:22.798Z,100.00
2023-01-12T09:58:22.183Z,100.00
2023-01-12T10:00:54.363Z,100.00
2023-01-12T10:03:20.924Z,100.00
2023-01-12T10:05:52.659Z,100.00
2023-01-12T10:08:25.270Z,100.00
2023-01-12T10:11:16.045Z,100.00
2023-01-12T10:14:07.256Z,100.00
2023-01-12T10:17:02.673Z,100.00
2023-01-12T10:19:49.330Z,100.00
2023-01-12T10:22:33.637Z,100.00
2023-01-12T10:25:00.175Z,100.00
2023-01-12T10:27:27.001Z,100.00
2023-01-12T10:29:53.533Z,100.00
2023-01-12T10:32:22.032Z,100.00
2023-01-12T10:34:53.719Z,100.00
2023-01-12T10:37:20.255Z,100.00
2023-01-12T10:39:46.771Z,100.00
2023-01-12T10:42:19.405Z,100.00
2023-01-12T10:44:45.950Z,100.00
2023-01-12T10:47:17.526Z,100.00
2023-01-12T10:49:45.614Z,100.00
2023-01-12T10:52:35.606Z,100.00
2023-01-12T10:55:02.195Z,100.00
2023-01-12T10:57:28.661Z,100.00
2023-01-12T10:59:59.113Z,100.00
2023-01-12T11:02:42.421Z,100.00
2023-01-12T11:05:27.852Z,100.00
2023-01-12T11:07:54.388Z,100.00
2023-01-12T11:10:30.579Z,100.00
2023-01-12T11:13:02.405Z,100.00
2023-01-12T11:15:30.381Z,100.00
2023-01-12T11:18:15.860Z,100.00
2023-01-12T11:20:47.470Z,100.00
2023-01-12T11:23:30.491Z,100.00
2023-01-12T11:26:01.415Z,100.00
2023-01-12T11:29:02.654Z,100.00
2023-01-12T11:31:36.259Z,100.00
2023-01-12T11:34:11.325Z,100.00
2023-01-12T11:36:42.142Z,100.00
2023-01-12T11:39:30.477Z,100.00
2023-01-12T11:42:00.074Z,100.00
2023-01-12T11:44:34.380Z,100.00
2023-01-12T11:47:07.109Z,100.00
2023-01-12T11:49:47.509Z,100.00
2023-01-12T11:52:16.121Z,100.00
2023-01-12T11:54:43.211Z,100.00
2023-01-12T11:57:19.631Z,100.00
2023-01-12T12:00:08.924Z,100.00
2023-01-12T12:02:45.237Z,100.00
2023-01-12T12:05:20.971Z,100.00
2023-01-12T12:08:22.915Z,100.00
2023-01-12T12:10:56.226Z,100.00
2023-01-12T12:14:04.170Z,100.00
2023-01-12T12:17:06.396Z,100.00
2023-01-12T12:19:59.250Z,100.00
2023-01-12T12:22:43.908Z,100.00
2023-01-12T12:25:13.104Z,100.00
2023-01-12T12:28:21.528Z,100.00
2023-01-12T12:31:05.763Z,100.00
2023-01-12T12:33:58.763Z,100.00
2023-01-12T12:36:50.329Z,100.00
2023-01-12T12:39:43.275Z,100.00
2023-01-12T12:42:47.727Z,100.00
2023-01-12T12:45:31.360Z,100.00
2023-01-12T12:48:11.384Z,100.00
2023-01-12T12:50:50.064Z,100.00
2023-01-12T12:53:22.524Z,100.00
2023-01-12T12:55:51.950Z,100.00
2023-01-12T12:58:21.451Z,100.00
2023-01-12T13:00:53.882Z,100.00
2023-01-12T13:03:39.215Z,100.00
2023-01-12T13:06:18.053Z,100.00
2023-01-12T13:08:46.337Z,100.00
2023-01-12T13:11:12.792Z,100.00
2023-01-12T13:13:59.055Z,100.00
2023-01-12T13:16:28.366Z,100.00
2023-01-12T13:18:54.838Z,100.00
2023-01-12T13:21:32.268Z,100.00
2023-01-12T13:24:10.708Z,100.00
2023-01-12T13:26:39.060Z,100.00
2023-01-12T13:29:23.957Z,100.00
2023-01-12T13:31:51.973Z,100.00
2023-01-12T13:34:36.958Z,100.00
2023-01-12T13:37:23.939Z,100.00
2023-01-12T13:40:00.083Z,100.00
2023-01-12T13:42:27.729Z,100.00
2023-01-12T13:44:55.323Z,100.00
2023-01-12T13:47:28.632Z,100.00
2023-01-12T13:50:01.396Z,100.00
2023-01-12T13:52:33.070Z,100.00
2023-01-12T13:55:00.117Z,100.00
2023-01-12T13:57:29.146Z,100.00
2023-01-12T14:00:00.441Z,100.00
2023-01-12T14:02:31.516Z,100.00
2023-01-12T14:05:04.291Z,100.00
2023-01-12T14:07:44.590Z,100.00
2023-01-12T14:10:23.528Z,100.00
2023-01-12T14:13:24.894Z,100.00
2023-01-12T14:15:59.941Z,100.00
2023-01-12T14:18:44.963Z,100.00
2023-01-12T14:21:22.748Z,100.00
2023-01-12T14:23:49.924Z,100.00
2023-01-12T14:26:20.693Z,100.00
2023-01-12T14:28:49.427Z,100.00
2023-01-12T14:31:25.391Z,100.00
2023-01-12T14:33:55.097Z,100.00
2023-01-12T14:36:57.401Z,100.00
2023-01-12T14:39:27.787Z,100.00
2023-01-12T14:41:56.111Z,100.00
2023-01-12T14:44:25.527Z,100.00
2023-01-12T14:46:53.966Z,100.00
2023-01-12T14:49:22.246Z,100.00
2023-01-12T14:51:55.984Z,100.00
2023-01-12T14:54:31.946Z,100.00
2023-01-12T14:57:02.978Z,100.00
2023-01-12T14:59:35.912Z,100.00
2023-01-12T15:02:14.824Z,100.00
2023-01-12T15:04:52.427Z,100.00
2023-01-12T15:07:20.408Z,100.00
2023-01-12T15:10:05.582Z,100.00
2023-01-12T15:12:32.057Z,100.00
2023-01-12T15:15:19.680Z,100.00
2023-01-12T15:17:47.458Z,100.00
2023-01-12T15:20:14.060Z,100.00
2023-01-12T15:22:40.538Z,100.00
2023-01-12T15:25:17.848Z,100.00
2023-01-12T15:27:44.845Z,100.00
2023-01-12T15:30:11.868Z,100.00
2023-01-12T15:32:47.640Z,100.00
2023-01-12T15:35:17.657Z,100.00
2023-01-12T15:37:44.204Z,100.00
2023-01-12T15:40:13.640Z,100.00
2023-01-12T15:42:40.710Z,100.00
2023-01-12T15:45:23.960Z,100.00
2023-01-12T15:47:50.481Z,100.00
2023-01-12T15:50:17.198Z,100.00
2023-01-12T15:52:43.916Z,100.00
2023-01-12T15:55:18.723Z,100.00
2023-01-12T15:57:45.404Z,100.00
2023-01-12T16:00:17.534Z,100.00
2023-01-12T16:02:45.109Z,100.00
2023-01-12T16:05:12.648Z,100.00
2023-01-12T16:07:39.444Z,100.00
2023-01-12T16:10:06.488Z,100.00
2023-01-12T16:12:33.199Z,100.00
2023-01-12T16:15:01.833Z,100.00
2023-01-12T16:17:28.366Z,100.00
2023-01-12T16:19:54.892Z,100.00
2023-01-12T16:22:26.222Z,100.00
2023-01-12T16:24:54.729Z,100.00
2023-01-12T16:27:23.883Z,100.00
2023-01-12T16:29:50.883Z,100.00
2023-01-12T16:32:17.766Z,100.00
2023-01-12T16:34:44.360Z,100.00
2023-01-12T16:37:13.647Z,100.00
2023-01-12T16:39:41.400Z,100.00
2023-01-12T16:42:08.641Z,100.00
2023-01-12T16:44:37.510Z,100.00
2023-01-12T16:47:10.770Z,100.00
2023-01-12T16:49:37.301Z,100.00
2023-01-12T16:52:06.348Z,100.00
2023-01-12T16:54:33.493Z,100.00
2023-01-12T16:57:00.149Z,97.75
2023-01-12T16:59:27.383Z,100.00
2023-01-12T17:01:54.058Z,100.00
2023-01-12T17:04:21.126Z,100.00
2023-01-12T17:06:47.960Z,99.29
2023-01-12T17:09:15.655Z,100.00
2023-01-12T17:11:42.801Z,100.00
2023-01-12T17:14:11.777Z,100.00
2023-01-12T17:16:38.944Z,100.00
2023-01-12T17:19:05.711Z,100.00
2023-01-12T17:21:32.325Z,98.24
2023-01-12T17:23:58.937Z,100.00
2023-01-12T17:26:25.454Z,100.00
2023-01-12T17:28:54.914Z,100.00
2023-01-12T17:31:21.556Z,99.10
2023-01-12T17:33:48.367Z,99.35
2023-01-12T17:36:15.146Z,98.97
2023-01-12T17:38:41.780Z,97.52
2023-01-12T17:41:10.865Z,98.38
2023-01-12T17:43:37.580Z,95.83
2023-01-12T17:46:04.234Z,94.66
2023-01-12T17:48:30.838Z,97.00
2023-01-12T17:50:57.348Z,98.27
2023-01-12T17:53:23.858Z,99.10
2023-01-12T17:55:52.311Z,100.00
2023-01-12T17:58:19.670Z,99.91
2023-01-12T18:00:46.326Z,98.29
2023-01-12T18:03:12.972Z,100.00
2023-01-12T18:05:39.692Z,100.00
2023-01-12T18:08:07.656Z,98.76
2023-01-12T18:10:34.156Z,99.48
2023-01-12T18:13:00.666Z,99.53
2023-01-12T18:15:27.159Z,100.00
2023-01-12T18:17:53.733Z,98.34
2023-01-12T18:20:20.269Z,100.00
2023-01-12T18:22:46.872Z,99.65
2023-01-12T18:25:13.372Z,99.16
2023-01-12T18:27:40.563Z,100.00
2023-01-12T18:30:07.683Z,99.20
2023-01-12T18:32:34.253Z,97.59
2023-01-12T18:35:00.762Z,100.00
2023-01-12T18:37:27.341Z,99.09
2023-01-12T18:39:53.864Z,100.00
2023-01-12T18:42:20.483Z,98.32
2023-01-12T18:44:47.216Z,100.00
2023-01-12T18:47:16.897Z,100.00
2023-01-12T18:49:44.085Z,96.12
2023-01-12T18:52:12.225Z,97.92
2023-01-12T18:54:38.800Z,100.00
2023-01-12T18:57:05.364Z,100.00
2023-01-12T18:59:31.997Z,98.10
2023-01-12T19:01:58.750Z,100.00
2023-01-12T19:04:25.565Z,99.65
2023-01-12T19:06:52.046Z,98.99
2023-01-12T19:09:18.541Z,96.96
2023-01-12T19:11:45.122Z,99.63
2023-01-12T19:14:11.618Z,96.32
2023-01-12T19:16:38.054Z,100.00
2023-01-12T19:19:08.004Z,97.78
2023-01-12T19:21:35.201Z,99.92
2023-01-12T19:24:01.788Z,98.95
2023-01-12T19:26:28.375Z,99.37
2023-01-12T19:28:54.873Z,96.50
2023-01-12T19:31:21.473Z,97.58
2023-01-12T19:33:47.982Z,97.85
2023-01-12T19:36:14.697Z,97.45
2023-01-12T19:38:41.786Z,100.00
2023-01-12T19:41:11.305Z,99.12
2023-01-12T19:43:38.756Z,97.73
2023-01-12T19:46:05.417Z,96.25
2023-01-12T19:48:32.197Z,97.68
2023-01-12T19:51:06.030Z,93.80
2023-01-12T19:53:32.688Z,98.38
2023-01-12T19:55:59.592Z,98.93
2023-01-12T19:58:26.302Z,97.98
2023-01-12T20:00:53.096Z,96.10
2023-01-12T20:03:22.298Z,98.21
2023-01-12T20:05:50.978Z,95.95
2023-01-12T20:08:23.195Z,99.74
2023-01-12T20:10:54.897Z,97.34
2023-01-12T20:13:21.331Z,99.42
2023-01-12T20:15:48.013Z,97.08
2023-01-12T20:18:14.560Z,97.51
2023-01-12T20:20:41.092Z,96.35
2023-01-12T20:23:07.645Z,98.14
2023-01-12T20:25:34.499Z,95.52
2023-01-12T20:28:01.037Z,98.41
2023-01-12T20:30:39.083Z,98.85
2023-01-12T20:33:06.925Z,98.16
2023-01-12T20:35:34.110Z,99.44
2023-01-12T20:38:03.780Z,97.56
2023-01-12T20:40:30.396Z,97.08
2023-01-12T20:42:57.049Z,97.99
2023-01-12T20:45:23.966Z,97.53
2023-01-12T20:47:50.507Z,98.61
2023-01-12T20:50:17.082Z,100.00
2023-01-12T20:52:43.653Z,95.81
2023-01-12T20:55:10.249Z,98.33
2023-01-12T20:57:37.957Z,98.26
2023-01-12T21:00:07.532Z,96.59
2023-01-12T21:02:34.406Z,94.89
2023-01-12T21:05:01.045Z,93.69
2023-01-12T21:07:27.715Z,96.71
2023-01-12T21:09:54.330Z,95.83
2023-01-12T21:12:20.904Z,97.17
2023-01-12T21:14:47.433Z,96.16
2023-01-12T21:17:14.060Z,97.01
2023-01-12T21:19:40.581Z,98.89
2023-01-12T21:22:07.114Z,99.74
2023-01-12T21:24:33.640Z,96.00
2023-01-12T21:27:00.211Z,95.70
2023-01-12T21:29:26.751Z,95.28
2023-01-12T21:31:53.702Z,96.46
2023-01-12T21:34:20.264Z,94.36
2023-01-12T21:36:46.851Z,95.73
2023-01-12T21:39:13.319Z,97.56
2023-01-12T21:41:39.836Z,94.41
2023-01-12T21:44:06.566Z,96.04
2023-01-12T21:46:33.100Z,99.99
2023-01-12T21:48:59.586Z,99.97
2023-01-12T21:51:33.884Z,95.23
2023-01-12T21:54:00.358Z,99.11
2023-01-12T21:56:26.917Z,98.72
2023-01-12T21:58:53.451Z,93.53
2023-01-12T22:01:20.118Z,95.26
2023-01-12T22:03:46.701Z,95.70
2023-01-12T22:06:13.606Z,95.65
2023-01-12T22:08:41.445Z,97.10
2023-01-12T22:11:09.970Z,96.40
2023-01-12T22:13:36.896Z,95.61
2023-01-12T22:16:08.662Z,97.60
2023-01-12T22:18:36.479Z,95.04
2023-01-12T22:21:04.983Z,94.03
2023-01-12T22:23:31.501Z,95.58
2023-01-12T22:26:17.073Z,97.45
2023-01-12T22:28:45.256Z,92.32
2023-01-12T22:31:15.300Z,96.55
2023-01-12T22:33:50.814Z,93.33
2023-01-12T22:36:17.308Z,90.89
2023-01-12T22:38:43.820Z,93.65
2023-01-12T22:41:12.140Z,94.18
2023-01-12T22:43:39.533Z,90.80
2023-01-12T22:46:18.135Z,92.24
2023-01-12T22:48:49.122Z,93.59
2023-01-12T22:51:16.802Z,95.59
2023-01-12T22:53:43.403Z,94.50
2023-01-12T22:56:10.799Z,93.39
2023-01-12T22:58:37.528Z,90.09
2023-01-12T23:01:06.019Z,94.83
2023-01-12T23:03:33.716Z,94.37
2023-01-12T23:06:00.863Z,92.70
2023-01-12T23:08:27.512Z,91.50
2023-01-12T23:11:03.243Z,95.93
2023-01-12T23:13:29.808Z,95.11
2023-01-12T23:15:56.352Z,93.56
2023-01-12T23:18:26.421Z,94.59
2023-01-12T23:20:53.087Z,93.22
2023-01-12T23:23:20.018Z,92.31
2023-01-12T23:25:47.558Z,93.57
2023-01-12T23:28:15.066Z,93.33
2023-01-12T23:30:41.678Z,92.00
2023-01-12T23:33:08.174Z,90.88
2023-01-12T23:35:40.952Z,91.70
2023-01-12T23:38:13.978Z,90.90
2023-01-12T23:40:40.533Z,91.21
2023-01-12T23:43:06.997Z,91.17
2023-01-12T23:45:33.933Z,92.97
2023-01-12T23:48:00.648Z,90.63
2023-01-12T23:50:27.139Z,90.66
2023-01-12T23:52:53.654Z,89.97
2023-01-12T23:55:20.198Z,90.97
2023-01-12T23:57:47.676Z,87.26
